Time;durP1;ratioP1;P1;durP2;ratioP2;P2;SDS_P1;SDS_P2;PMS_P1;PMS_P2;Temp;Humidity;BMP_temperature;BMP_pressure;BME280_temperature;BME280_humidity;BME280_pressure;Samples;Min_cycle;Max_cycle;Signal;HPM_P1;HPM_P2
2023/07/05 00:00:30;;;;;;;9.45;2.67;;;15.40;99.90;;;;;;5033440;28;20031;-76
2023/07/05 00:02:56;;;;;;;6.53;2.53;;;15.40;99.90;;;;;;5033168;28;20056;-76
2023/07/05 00:05:22;;;;;;;11.68;3.95;;;15.40;99.90;;;;;;5033324;28;20493;-76
2023/07/05 00:07:47;;;;;;;8.52;2.90;;;15.50;99.90;;;;;;5033373;28;20109;-76
2023/07/05 00:10:13;;;;;;;8.75;3.20;;;15.50;99.90;;;;;;5032062;28;20022;-76
2023/07/05 00:12:39;;;;;;;7.32;2.78;;;15.60;99.90;;;;;;5031660;28;20029;-76
2023/07/05 00:15:06;;;;;;;9.07;3.10;;;15.60;99.90;;;;;;5033204;28;20029;-76
2023/07/05 00:17:35;;;;;;;10.00;2.42;;;15.50;99.90;;;;;;5033253;28;20036;-76
2023/07/05 00:20:02;;;;;;;10.43;3.08;;;15.50;99.90;;;;;;5033210;28;20389;-76
2023/07/05 00:22:27;;;;;;;7.40;3.22;;;15.50;99.90;;;;;;5032912;28;20032;-76
2023/07/05 00:24:54;;;;;;;8.40;3.08;;;15.40;99.90;;;;;;5033264;28;20033;-76
2023/07/05 00:27:24;;;;;;;6.70;3.25;;;15.50;99.90;;;;;;5031879;28;20021;-76
2023/07/05 00:29:50;;;;;;;6.00;3.20;;;15.50;99.90;;;;;;5031930;28;20040;-75
2023/07/05 00:32:16;;;;;;;7.00;3.13;;;15.60;99.90;;;;;;5033045;28;20026;-76
2023/07/05 00:34:42;;;;;;;7.53;2.50;;;15.70;99.90;;;;;;5031794;28;20083;-76
2023/07/05 00:37:07;;;;;;;7.05;2.38;;;15.60;99.90;;;;;;5033092;28;20021;-76
2023/07/05 00:39:33;;;;;;;6.40;2.47;;;15.70;99.90;;;;;;5031764;28;20036;-76
2023/07/05 00:41:58;;;;;;;6.32;2.25;;;15.70;99.90;;;;;;5031635;28;20084;-76
2023/07/05 00:44:26;;;;;;;7.95;1.90;;;15.70;99.90;;;;;;5032944;28;20026;-76
2023/07/05 00:46:59;;;;;;;6.57;2.35;;;15.70;99.90;;;;;;5032863;28;20045;-76
2023/07/05 00:49:27;;;;;;;9.10;2.05;;;15.70;99.90;;;;;;5036801;28;20052;-76
2023/07/05 00:52:07;;;;;;;4.50;1.77;;;15.70;99.90;;;;;;5036871;28;20500;-76
2023/07/05 00:54:37;;;;;;;7.15;2.40;;;15.70;99.90;;;;;;5037117;28;20018;-77
2023/07/05 00:57:11;;;;;;;3.42;1.70;;;15.70;99.90;;;;;;5037125;28;20113;-76
2023/07/05 00:59:42;;;;;;;3.85;1.10;;;15.70;99.90;;;;;;5037374;28;20148;-76
2023/07/05 01:02:08;;;;;;;3.28;1.25;;;16.40;99.90;;;;;;5037147;28;20453;-77
2023/07/05 01:04:34;;;;;;;4.40;1.38;;;15.70;99.90;;;;;;5037100;28;20038;-76
2023/07/05 01:07:00;;;;;;;6.93;1.70;;;15.80;99.90;;;;;;5036446;28;20033;-76
2023/07/05 01:09:26;;;;;;;3.92;1.33;;;15.80;99.90;;;;;;5036384;28;20163;-76
2023/07/05 01:12:01;;;;;;;3.88;1.10;;;15.80;99.90;;;;;;5036461;28;20021;-76
2023/07/05 01:14:34;;;;;;;4.75;1.83;;;15.80;99.90;;;;;;5036167;28;20041;-76
2023/07/05 01:17:14;;;;;;;5.50;1.35;;;15.90;99.90;;;;;;5036484;28;20515;-76
2023/07/05 01:20:02;;;;;;;4.00;1.60;;;15.80;99.90;;;;;;5036887;28;20164;-76
2023/07/05 01:23:02;;;;;;;5.85;2.03;;;15.90;99.90;;;;;;5034667;28;20112;-76
2023/07/05 01:25:46;;;;;;;3.30;1.55;;;15.90;99.90;;;;;;5001960;28;20444;-75
2023/07/05 01:28:26;;;;;;;4.00;1.10;;;15.90;99.90;;;;;;5036673;28;20438;-76
2023/07/05 01:31:07;;;;;;;4.00;1.30;;;15.90;99.90;;;;;;5036161;28;20024;-75
2023/07/05 01:33:51;;;;;;;3.58;1.20;;;15.90;99.90;;;;;;5036298;28;20032;-76
2023/07/05 01:36:17;;;;;;;2.30;0.73;;;16.00;99.90;;;;;;5036205;28;20021;-76
2023/07/05 01:38:42;;;;;;;2.92;0.98;;;16.00;99.90;;;;;;5034750;28;20025;-76
2023/07/05 01:41:08;;;;;;;2.25;0.60;;;16.00;99.90;;;;;;5036106;28;20087;-76
2023/07/05 01:43:39;;;;;;;5.68;1.05;;;16.00;99.90;;;;;;5035700;28;20029;-76
2023/07/05 01:46:16;;;;;;;2.38;0.50;;;16.00;99.90;;;;;;5035856;28;20021;-76
2023/07/05 01:49:06;;;;;;;1.80;0.40;;;16.00;99.90;;;;;;5036424;28;20029;-76
2023/07/05 01:52:02;;;;;;;0.95;0.35;;;16.10;99.90;;;;;;5035734;28;20079;-76
2023/07/05 01:54:39;;;;;;;2.00;0.50;;;16.10;99.90;;;;;;5035720;28;20021;-76
2023/07/05 01:57:07;;;;;;;3.38;0.40;;;16.10;99.90;;;;;;5035507;28;20029;-76
2023/07/05 01:59:44;;;;;;;1.55;0.65;;;16.00;99.90;;;;;;5035280;28;20037;-76
2023/07/05 02:02:12;;;;;;;4.60;0.57;;;16.00;99.90;;;;;;5035417;28;20048;-76
2023/07/05 02:04:38;;;;;;;5.10;0.97;;;16.00;99.90;;;;;;5035416;28;20022;-75
2023/07/05 02:07:05;;;;;;;2.33;0.68;;;16.00;99.90;;;;;;5035885;28;20268;-76
2023/07/05 02:09:38;;;;;;;0.93;0.30;;;16.00;99.90;;;;;;5035339;28;20021;-76
2023/07/05 02:12:05;;;;;;;2.13;0.20;;;16.00;99.90;;;;;;5035247;28;20576;-76
2023/07/05 02:14:31;;;;;;;2.17;0.50;;;16.00;99.90;;;;;;5035105;28;20033;-76
2023/07/05 02:16:57;;;;;;;0.65;0.28;;;16.00;99.90;;;;;;5035017;28;20029;-76
2023/07/05 02:19:22;;;;;;;2.28;0.13;;;16.00;99.90;;;;;;5035116;28;20030;-76
2023/07/05 02:21:48;;;;;;;1.10;0.10;;;15.90;99.90;;;;;;5033753;28;20505;-76
2023/07/05 02:24:13;;;;;;;1.23;0.10;;;15.90;99.90;;;;;;5034923;28;20021;-76
2023/07/05 02:26:39;;;;;;;0.63;0.10;;;15.90;99.90;;;;;;5033798;28;20034;-76
2023/07/05 02:29:07;;;;;;;2.75;0.00;;;15.80;99.90;;;;;;5035005;28;20029;-76
2023/07/05 02:31:34;;;;;;;1.55;0.00;;;15.80;99.90;;;;;;5035479;28;20542;-76
2023/07/05 02:34:00;;;;;;;1.80;0.10;;;15.80;99.90;;;;;;5033592;28;20021;-76
2023/07/05 02:36:25;;;;;;;2.58;0.45;;;15.70;99.90;;;;;;5034850;28;20600;-76
2023/07/05 02:38:52;;;;;;;2.67;0.40;;;15.60;99.90;;;;;;5033690;28;20048;-76
2023/07/05 02:41:18;;;;;;;2.58;0.47;;;15.60;99.90;;;;;;5034709;28;20489;-76
2023/07/05 02:43:44;;;;;;;2.17;0.10;;;15.50;99.90;;;;;;5034563;28;20033;-76
2023/07/05 02:46:09;;;;;;;1.10;0.22;;;15.60;99.90;;;;;;5033281;28;20025;-76
2023/07/05 02:48:35;;;;;;;2.95;0.00;;;16.70;99.90;;;;;;5034635;28;20363;-76
2023/07/05 02:51:00;;;;;;;1.45;0.25;;;15.20;99.90;;;;;;5034490;28;20022;-75
2023/07/05 02:53:26;;;;;;;3.95;0.00;;;15.20;99.90;;;;;;5034719;28;20032;-75
2023/07/05 02:55:51;;;;;;;1.02;0.10;;;15.20;99.90;;;;;;5033517;28;20025;-75
2023/07/05 02:58:17;;;;;;;0.15;0.10;;;15.10;99.90;;;;;;5034852;28;20037;-76
2023/07/05 03:00:44;;;;;;;3.88;0.40;;;15.10;99.90;;;;;;5033037;28;20033;-76
2023/07/05 03:03:09;;;;;;;1.58;0.30;;;15.10;99.90;;;;;;5032768;28;20032;-76
2023/07/05 03:05:35;;;;;;;3.15;0.45;;;15.00;99.90;;;;;;5033000;28;20030;-76
2023/07/05 03:08:01;;;;;;;2.33;0.85;;;15.00;99.90;;;;;;5032918;28;20028;-76
2023/07/05 03:10:26;;;;;;;4.40;0.25;;;14.80;99.90;;;;;;5032864;28;20103;-76
2023/07/05 03:12:52;;;;;;;1.60;0.30;;;14.80;99.90;;;;;;5032671;28;20422;-76
2023/07/05 03:15:17;;;;;;;3.60;0.60;;;14.80;99.90;;;;;;5032770;28;20577;-76
2023/07/05 03:17:43;;;;;;;2.67;0.85;;;15.40;99.90;;;;;;5033957;28;20432;-76
2023/07/05 03:20:09;;;;;;;1.35;0.43;;;14.70;99.90;;;;;;5032558;28;20428;-76
2023/07/05 03:22:35;;;;;;;4.18;0.60;;;14.60;99.90;;;;;;5033682;28;20025;-76
2023/07/05 03:25:00;;;;;;;2.85;0.63;;;14.70;99.90;;;;;;5033887;28;20026;-76
2023/07/05 03:27:28;;;;;;;4.22;0.50;;;14.60;99.90;;;;;;5034260;28;20032;-76
2023/07/05 03:29:55;;;;;;;1.70;0.65;;;14.50;99.90;;;;;;5032439;28;20116;-76
2023/07/05 03:32:21;;;;;;;1.80;0.85;;;14.50;99.90;;;;;;5033772;28;20032;-76
2023/07/05 03:34:47;;;;;;;4.25;0.77;;;14.50;99.90;;;;;;5033603;28;20086;-76
2023/07/05 03:37:12;;;;;;;3.25;0.75;;;14.50;99.90;;;;;;5033882;28;20029;-76
2023/07/05 03:39:38;;;;;;;1.35;0.73;;;14.50;99.90;;;;;;5032364;28;20025;-76
2023/07/05 03:42:04;;;;;;;2.78;0.82;;;14.40;99.90;;;;;;5034054;28;20029;-76
2023/07/05 03:44:30;;;;;;;3.75;0.88;;;14.50;99.90;;;;;;5033799;28;20113;-76
2023/07/05 03:46:55;;;;;;;1.48;0.55;;;14.40;99.90;;;;;;5032349;28;20043;-76
2023/07/05 03:49:21;;;;;;;2.65;1.13;;;14.40;99.90;;;;;;5033549;28;20033;-76
2023/07/05 03:51:46;;;;;;;3.92;1.00;;;14.40;99.90;;;;;;5032320;28;20022;-76
2023/07/05 03:54:12;;;;;;;3.20;0.85;;;14.40;99.90;;;;;;5032066;28;20424;-76
2023/07/05 03:56:37;;;;;;;5.18;0.50;;;14.70;99.90;;;;;;5033922;28;20472;-76
2023/07/05 03:59:03;;;;;;;3.50;0.85;;;14.30;99.90;;;;;;5033977;28;20033;-76
2023/07/05 04:01:30;;;;;;;4.60;1.05;;;14.40;99.90;;;;;;5032196;28;20017;-76
2023/07/05 04:03:58;;;;;;;3.42;0.63;;;14.30;99.90;;;;;;5033130;28;20025;-76
2023/07/05 04:06:27;;;;;;;2.65;0.95;;;14.40;99.90;;;;;;5033354;28;20022;-76
2023/07/05 04:08:53;;;;;;;3.55;0.70;;;14.30;99.90;;;;;;5033253;28;20504;-76
2023/07/05 04:11:19;;;;;;;6.90;1.02;;;14.40;99.90;;;;;;5033056;28;20022;-75
2023/07/05 04:13:46;;;;;;;2.42;0.63;;;14.30;99.90;;;;;;5033140;28;20041;-76
2023/07/05 04:16:17;;;;;;;5.78;1.55;;;14.40;99.90;;;;;;5031902;28;20083;-76
2023/07/05 04:18:44;;;;;;;4.47;1.05;;;14.30;99.90;;;;;;5032017;28;20028;-76
2023/07/05 04:21:11;;;;;;;2.90;0.90;;;14.40;99.90;;;;;;5033139;28;20026;-76
2023/07/05 04:23:39;;;;;;;1.83;0.57;;;14.40;99.90;;;;;;5035004;28;20083;-76
2023/07/05 04:26:17;;;;;;;6.50;1.00;;;14.40;99.90;;;;;;5037320;28;20022;-76
2023/07/05 04:28:43;;;;;;;6.50;1.00;;;14.40;99.90;;;;;;5037209;28;20432;-76
2023/07/05 04:31:12;;;;;;;8.55;0.63;;;14.50;99.90;;;;;;5037642;28;20104;-76
2023/07/05 04:33:38;;;;;;;;;;;14.60;99.90;;;;;;5037428;28;20393;-76
2023/07/05 04:36:04;;;;;;;3.08;0.98;;;14.60;99.90;;;;;;5036956;28;19912;-76
2023/07/05 04:38:30;;;;;;;3.30;0.65;;;14.60;99.90;;;;;;5036948;28;20489;-75
2023/07/05 04:40:57;;;;;;;5.72;0.50;;;14.50;99.90;;;;;;5036928;28;20052;-75
2023/07/05 04:43:23;;;;;;;4.63;1.25;;;14.50;99.90;;;;;;5036757;28;20076;-76
2023/07/05 04:45:54;;;;;;;5.93;0.85;;;14.50;99.90;;;;;;5036802;28;20021;-75
2023/07/05 04:48:20;;;;;;;2.95;1.13;;;14.40;99.90;;;;;;5036932;28;20553;-76
2023/07/05 04:50:52;;;;;;;4.13;1.20;;;14.30;99.90;;;;;;5036744;28;20029;-76
2023/07/05 04:53:22;;;;;;;2.45;0.98;;;14.20;99.90;;;;;;5036619;28;20520;-76
2023/07/05 04:55:51;;;;;;;4.43;1.17;;;14.10;99.90;;;;;;5036734;28;20027;-76
2023/07/05 04:58:17;;;;;;;3.95;1.02;;;14.10;99.90;;;;;;5036758;28;20116;-76
2023/07/05 05:00:46;;;;;;;3.35;0.73;;;13.90;99.90;;;;;;5036730;28;20029;-76
2023/07/05 05:03:13;;;;;;;4.53;1.27;;;14.20;99.90;;;;;;5035229;28;20400;-76
2023/07/05 05:05:38;;;;;;;5.60;0.93;;;13.70;99.90;;;;;;5035417;28;20014;-77
2023/07/05 05:08:04;;;;;;;2.85;0.90;;;13.70;99.90;;;;;;5036447;28;20393;-77
2023/07/05 05:10:30;;;;;;;3.10;0.75;;;13.60;99.90;;;;;;5036581;28;20026;-77
2023/07/05 05:12:55;;;;;;;3.22;1.05;;;13.60;99.90;;;;;;5036676;28;20156;-77
2023/07/05 05:15:21;;;;;;;2.53;0.82;;;13.60;99.90;;;;;;5037273;28;20191;-77
2023/07/05 05:17:46;;;;;;;2.47;1.05;;;13.50;99.90;;;;;;5036341;28;20066;-77
2023/07/05 05:20:12;;;;;;;6.15;1.10;;;13.60;99.90;;;;;;5036167;28;20397;-77
2023/07/05 05:22:37;;;;;;;4.40;0.93;;;13.70;99.90;;;;;;5036030;28;20033;-77
2023/07/05 05:25:03;;;;;;;3.20;0.63;;;13.70;99.90;;;;;;5036058;28;20441;-76
2023/07/05 05:27:29;;;;;;;7.45;1.58;;;13.80;99.90;;;;;;5034844;28;20420;-76
2023/07/05 05:29:54;;;;;;;2.35;0.60;;;14.10;99.90;;;;;;5036140;28;20030;-76
2023/07/05 05:32:20;;;;;;;1.80;0.55;;;13.90;99.90;;;;;;5036560;28;20021;-76
2023/07/05 05:34:45;;;;;;;1.48;0.55;;;13.90;99.90;;;;;;5034685;28;20524;-76
2023/07/05 05:37:11;;;;;;;0.98;0.20;;;14.00;99.90;;;;;;5035923;28;20041;-76
2023/07/05 05:39:37;;;;;;;1.40;0.25;;;14.00;99.90;;;;;;5036372;28;20028;-76
2023/07/05 05:42:02;;;;;;;1.48;0.55;;;14.50;99.90;;;;;;5035820;28;20082;-74
2023/07/05 05:44:28;;;;;;;3.70;0.40;;;13.90;99.90;;;;;;5034385;28;20022;-74
2023/07/05 05:46:53;;;;;;;1.45;0.08;;;13.80;99.90;;;;;;5035635;28;20026;-74
2023/07/05 05:49:20;;;;;;;1.65;0.73;;;13.80;99.90;;;;;;5035626;28;20563;-74
2023/07/05 05:51:45;;;;;;;3.95;0.10;;;13.70;99.90;;;;;;5035539;28;20049;-74
2023/07/05 05:54:13;;;;;;;3.20;0.10;;;13.60;99.90;;;;;;5035532;28;20026;-75
2023/07/05 05:56:39;;;;;;;1.38;0.20;;;13.50;99.90;;;;;;5034207;28;20079;-75
2023/07/05 05:59:04;;;;;;;2.05;0.00;;;13.40;99.90;;;;;;5034181;28;20033;-75
2023/07/05 06:01:30;;;;;;;3.65;0.32;;;13.40;99.90;;;;;;5035339;28;20025;-75
2023/07/05 06:03:56;;;;;;;3.65;0.08;;;13.30;99.90;;;;;;5035151;28;20033;-75
2023/07/05 06:06:21;;;;;;;0.77;0.30;;;13.20;99.90;;;;;;5034303;28;20018;-73
2023/07/05 06:08:47;;;;;;;4.40;0.85;;;13.10;99.90;;;;;;5035625;28;20075;-75
2023/07/05 06:11:12;;;;;;;2.30;0.20;;;12.80;99.90;;;;;;5035421;28;20028;-74
2023/07/05 06:13:38;;;;;;;3.53;0.10;;;12.80;99.90;;;;;;5034944;28;20037;-74
2023/07/05 06:16:04;;;;;;;4.25;0.20;;;12.80;99.90;;;;;;5034251;28;20068;-73
2023/07/05 06:18:30;;;;;;;2.30;0.13;;;12.80;99.90;;;;;;5034221;28;20053;-73
2023/07/05 06:20:56;;;;;;;1.23;0.00;;;13.30;99.90;;;;;;5035908;28;20494;-73
2023/07/05 06:23:22;;;;;;;3.05;0.00;;;;;;;;;;5035950;28;20080;-76
2023/07/05 06:25:49;;;;;;;1.65;0.10;;;12.50;99.90;;;;;;5035471;28;20484;-74
2023/07/05 06:28:19;;;;;;;4.22;0.57;;;12.40;99.90;;;;;;5033738;28;20028;-74
2023/07/05 06:30:45;;;;;;;2.55;0.10;;;12.30;99.90;;;;;;5035238;28;20481;-73
2023/07/05 06:33:12;;;;;;;6.53;0.20;;;12.10;99.90;;;;;;5035795;28;20026;-72
2023/07/05 06:35:37;;;;;;;1.88;0.00;;;12.10;99.90;;;;;;5035303;28;20028;-73
2023/07/05 06:38:03;;;;;;;3.78;0.38;;;12.10;99.90;;;;;;5033645;28;20034;-73
2023/07/05 06:40:28;;;;;;;6.43;0.00;;;12.10;99.90;;;;;;5035283;28;20029;-72
2023/07/05 06:42:54;;;;;;;1.27;0.00;;;12.10;99.90;;;;;;5034997;28;20033;-72
2023/07/05 06:45:20;;;;;;;0.50;0.00;;;11.90;99.90;;;;;;5034847;28;20060;-73
2023/07/05 06:47:46;;;;;;;2.67;0.00;;;11.90;99.90;;;;;;5034890;28;20025;-72
2023/07/05 06:50:13;;;;;;;6.38;0.43;;;12.00;99.90;;;;;;5034107;28;20053;-72
2023/07/05 06:52:39;;;;;;;1.95;0.00;;;11.90;99.90;;;;;;5032560;28;20513;-72
2023/07/05 06:55:05;;;;;;;4.30;0.10;;;11.90;99.90;;;;;;5033040;28;20104;-72
2023/07/05 06:57:31;;;;;;;6.90;0.17;;;11.80;99.90;;;;;;5035743;28;20098;-72
2023/07/05 06:59:56;;;;;;;2.08;0.00;;;11.90;99.90;;;;;;5033487;28;20101;-72
2023/07/05 07:02:22;;;;;;;2.85;0.22;;;11.80;99.90;;;;;;5034706;28;20067;-72
2023/07/05 07:04:47;;;;;;;6.28;0.55;;;11.80;99.90;;;;;;5034461;28;20084;-72
2023/07/05 07:07:13;;;;;;;3.65;0.10;;;11.90;99.90;;;;;;5034386;28;20159;-72
2023/07/05 07:09:40;;;;;;;1.75;0.20;;;11.90;99.90;;;;;;5034669;28;20524;-72
2023/07/05 07:12:08;;;;;;;5.40;0.15;;;12.10;99.90;;;;;;5034557;28;20013;-72
2023/07/05 07:14:33;;;;;;;3.15;0.00;;;11.90;99.90;;;;;;5016713;28;20103;-73
2023/07/05 07:16:59;;;;;;;3.40;0.17;;;11.90;99.90;;;;;;5034588;28;20045;-72
2023/07/05 07:19:25;;;;;;;2.97;0.10;;;12.00;99.90;;;;;;5033063;28;20028;-71
2023/07/05 07:21:50;;;;;;;8.77;1.52;;;12.00;99.90;;;;;;5034200;28;20022;-72
2023/07/05 07:24:16;;;;;;;7.25;0.35;;;12.00;99.90;;;;;;5033963;28;20031;-72
2023/07/05 07:26:42;;;;;;;9.93;0.32;;;12.00;99.90;;;;;;5034200;28;20032;-71
2023/07/05 07:29:11;;;;;;;6.10;0.47;;;12.10;99.90;;;;;;5033930;28;20021;-72
2023/07/05 07:31:37;;;;;;;5.78;1.48;;;12.10;99.90;;;;;;5033910;28;20018;-71
2023/07/05 07:34:05;;;;;;;10.70;0.52;;;12.20;99.90;;;;;;5034112;28;20112;-71
2023/07/05 07:36:32;;;;;;;5.00;0.82;;;12.30;99.90;;;;;;5034378;28;20026;-71
2023/07/05 07:38:58;;;;;;;6.32;0.70;;;12.30;99.90;;;;;;5034253;28;20021;-71
2023/07/05 07:41:35;;;;;;;5.00;0.52;;;12.30;99.90;;;;;;5033860;28;20033;-71
2023/07/05 07:44:04;;;;;;;5.53;0.15;;;12.40;99.90;;;;;;5033060;28;20116;-71
2023/07/05 07:46:30;;;;;;;1.63;0.10;;;12.50;99.90;;;;;;5032487;28;20567;-71
2023/07/05 07:48:59;;;;;;;8.80;0.65;;;12.50;99.90;;;;;;5033795;28;20026;-72
2023/07/05 07:51:28;;;;;;;5.93;0.20;;;12.50;99.90;;;;;;5033674;28;20022;-71
2023/07/05 07:53:54;;;;;;;;;;;12.60;99.90;;;;;;5033817;28;20033;-71
2023/07/05 07:56:21;;;;;;;8.77;0.80;;;12.50;99.90;;;;;;5033436;28;19958;-71
2023/07/05 07:58:50;;;;;;;5.43;0.55;;;12.50;99.90;;;;;;5033406;28;20029;-71
2023/07/05 08:01:19;;;;;;;6.45;0.32;;;12.60;99.90;;;;;;5033984;28;20021;-71
2023/07/05 08:03:45;;;;;;;3.20;0.00;;;12.60;99.90;;;;;;5033405;28;20030;-71
2023/07/05 08:06:11;;;;;;;7.03;0.75;;;12.60;99.90;;;;;;5033474;28;20374;-72
2023/07/05 08:08:38;;;;;;;7.72;0.82;;;12.60;99.90;;;;;;5033381;28;20028;-71
2023/07/05 08:11:05;;;;;;;2.25;0.52;;;12.50;99.90;;;;;;5033280;28;20030;-70
2023/07/05 08:13:31;;;;;;;5.68;0.43;;;12.50;99.90;;;;;;5033574;28;20124;-71
2023/07/05 08:16:00;;;;;;;3.80;0.43;;;12.50;99.90;;;;;;5033469;28;20061;-72
2023/07/05 08:18:27;;;;;;;6.15;1.33;;;12.50;99.90;;;;;;5033865;28;20037;-71
2023/07/05 08:20:53;;;;;;;4.32;0.20;;;12.50;99.90;;;;;;5033663;28;20026;-71
2023/07/05 08:23:19;;;;;;;1.65;0.32;;;12.50;99.90;;;;;;5032820;28;20432;-71
2023/07/05 08:25:46;;;;;;;5.47;0.25;;;12.60;99.90;;;;;;5034167;28;20014;-71
2023/07/05 08:28:13;;;;;;;3.78;0.77;;;12.60;99.90;;;;;;5033697;28;20045;-71
2023/07/05 08:30:39;;;;;;;5.18;0.73;;;12.60;99.90;;;;;;5033538;28;20028;-71
2023/07/05 08:33:06;;;;;;;8.30;0.28;;;12.60;99.90;;;;;;5033705;28;20072;-71
2023/07/05 08:35:33;;;;;;;7.25;0.40;;;12.60;99.90;;;;;;5033565;28;20040;-71
2023/07/05 08:37:58;;;;;;;4.47;0.38;;;12.60;99.90;;;;;;5032544;28;20515;-72
2023/07/05 08:40:35;;;;;;;3.63;0.40;;;12.70;99.90;;;;;;5033037;28;20022;-71
2023/07/05 08:43:06;;;;;;;3.53;0.17;;;12.70;99.90;;;;;;5033613;28;20103;-71
2023/07/05 08:45:38;;;;;;;3.50;0.47;;;12.70;99.90;;;;;;5032993;28;20397;-72
2023/07/05 08:48:06;;;;;;;4.82;0.40;;;12.60;99.90;;;;;;5033182;28;20017;-72
2023/07/05 08:50:36;;;;;;;6.53;0.63;;;12.60;99.90;;;;;;5033649;28;20018;-72
2023/07/05 08:53:14;;;;;;;6.40;0.50;;;12.70;99.90;;;;;;5031689;28;20100;-73
2023/07/05 08:55:40;;;;;;;;;;;12.70;99.90;;;;;;5033945;28;20111;-72
2023/07/05 08:58:08;;;;;;;7.05;0.40;;;12.80;99.90;;;;;;5033272;28;20367;-72
2023/07/05 09:00:45;;;;;;;10.75;0.65;;;12.80;99.90;;;;;;5033136;28;20021;-72
2023/07/05 09:03:13;;;;;;;4.50;0.80;;;12.90;99.90;;;;;;5032942;28;20080;-72
2023/07/05 09:06:05;;;;;;;9.45;0.95;;;12.90;99.90;;;;;;5032655;28;20428;-73
2023/07/05 09:09:09;;;;;;;6.32;0.73;;;13.10;99.90;;;;;;5017104;28;20033;-73
2023/07/05 09:11:47;;;;;;;9.93;0.82;;;13.10;99.90;;;;;;5036498;28;20025;-73
2023/07/05 09:14:23;;;;;;;5.13;0.70;;;13.00;99.90;;;;;;5036127;28;20470;-73
2023/07/05 09:16:48;;;;;;;6.00;0.30;;;13.00;99.90;;;;;;5035194;28;20099;-73
2023/07/05 09:19:30;;;;;;;3.88;0.55;;;12.90;99.90;;;;;;5036304;28;20517;-73
2023/07/05 09:22:01;;;;;;;5.22;1.13;;;12.90;99.90;;;;;;5036751;28;20041;-73
2023/07/05 09:24:39;;;;;;;11.52;0.98;;;12.80;99.90;;;;;;5036079;28;20022;-73
2023/07/05 09:27:19;;;;;;;7.20;0.40;;;12.80;99.90;;;;;;5036140;28;20026;-73
2023/07/05 09:29:54;;;;;;;4.45;0.30;;;12.80;99.90;;;;;;5036684;28;20496;-74
2023/07/05 09:32:28;;;;;;;8.50;0.95;;;12.90;99.90;;;;;;5034710;28;20029;-74
2023/07/05 09:34:58;;;;;;;8.75;0.55;;;12.90;99.90;;;;;;5036507;28;20014;-74
2023/07/05 09:37:33;;;;;;;6.88;0.50;;;12.80;99.90;;;;;;5035885;28;20106;-73
2023/07/05 09:40:19;;;;;;;8.02;0.65;;;12.80;99.90;;;;;;5036465;28;20020;-73
2023/07/05 09:42:47;;;;;;;9.57;1.67;;;12.80;99.90;;;;;;5036212;28;20068;-73
2023/07/05 09:45:16;;;;;;;6.30;0.50;;;12.80;99.90;;;;;;5036358;28;20466;-73
2023/07/05 09:47:43;;;;;;;8.10;0.77;;;12.70;99.90;;;;;;5034435;28;20116;-74
2023/07/05 09:50:16;;;;;;;4.68;0.75;;;12.70;99.90;;;;;;5035566;28;20022;-75
2023/07/05 09:52:42;;;;;;;6.10;0.57;;;12.40;99.90;;;;;;5034324;28;20029;-75
2023/07/05 09:55:13;;;;;;;5.40;0.30;;;12.50;99.90;;;;;;5035572;28;20044;-73
2023/07/05 09:57:39;;;;;;;12.75;1.25;;;12.50;99.90;;;;;;5034379;28;20017;-75
2023/07/05 10:00:31;;;;;;;7.97;0.45;;;12.40;99.90;;;;;;5036004;28;20079;-73
2023/07/05 10:03:14;;;;;;;4.85;1.00;;;12.40;99.90;;;;;;5035566;28;20025;-73
2023/07/05 10:05:51;;;;;;;5.90;0.88;;;12.40;99.90;;;;;;5036133;28;20509;-73
2023/07/05 10:08:16;;;;;;;8.13;0.70;;;12.20;99.90;;;;;;5035428;28;20477;-73
2023/07/05 10:10:42;;;;;;;6.20;0.80;;;12.20;99.90;;;;;;5035188;28;20112;-73
2023/07/05 10:13:25;;;;;;;9.27;0.98;;;12.20;99.90;;;;;;5035027;28;20037;-73
2023/07/05 10:15:57;;;;;;;5.97;0.65;;;12.20;99.90;;;;;;5035226;28;20026;-75
2023/07/05 10:18:33;;;;;;;10.32;1.17;;;12.30;99.90;;;;;;5035207;28;20413;-75
2023/07/05 10:21:02;;;;;;;8.88;0.40;;;12.70;99.90;;;;;;5034438;28;20397;-74
2023/07/05 10:23:30;;;;;;;12.88;1.33;;;12.70;99.90;;;;;;5034937;28;20029;-74
2023/07/05 10:26:02;;;;;;;6.82;0.88;;;13.30;99.90;;;;;;5034805;28;20393;-72
2023/07/05 10:28:29;;;;;;;7.97;1.17;;;13.30;99.90;;;;;;5033725;28;20028;-73
2023/07/05 10:30:59;;;;;;;13.32;1.27;;;13.60;99.90;;;;;;5035028;28;20036;-75
2023/07/05 10:33:28;;;;;;;8.07;0.73;;;13.90;99.90;;;;;;5034665;28;20025;-75
2023/07/05 10:36:02;;;;;;;15.15;1.60;;;14.20;99.90;;;;;;5034780;28;20026;-73
2023/07/05 10:38:41;;;;;;;6.65;1.33;;;14.40;99.90;;;;;;5034693;28;20377;-73
2023/07/05 10:41:34;;;;;;;4.57;1.23;;;14.50;99.90;;;;;;5035335;28;20412;-73
2023/07/05 10:44:02;;;;;;;5.65;0.68;;;14.50;99.90;;;;;;5033276;28;20036;-73
2023/07/05 10:46:28;;;;;;;10.73;1.48;;;14.40;99.90;;;;;;5034638;28;20030;-73
2023/07/05 10:48:55;;;;;;;9.23;1.05;;;14.40;99.90;;;;;;5034793;28;20013;-73
2023/07/05 10:51:27;;;;;;;9.05;1.25;;;14.40;99.90;;;;;;5034603;28;20049;-73
2023/07/05 10:54:00;;;;;;;9.13;1.17;;;14.40;99.90;;;;;;5034417;28;20028;-74
2023/07/05 10:56:33;;;;;;;10.80;1.02;;;14.60;99.90;;;;;;5033430;28;20025;-75
2023/07/05 10:59:08;;;;;;;10.77;0.95;;;14.70;99.90;;;;;;5034191;28;20036;-76
2023/07/05 11:01:43;;;;;;;9.43;1.55;;;14.70;99.90;;;;;;5035756;28;20104;-76
2023/07/05 11:04:16;;;;;;;3.35;0.45;;;14.80;99.90;;;;;;5034199;28;20527;-75
2023/07/05 11:06:44;;;;;;;5.60;0.90;;;14.80;99.90;;;;;;5033130;28;20024;-77
2023/07/05 11:09:10;;;;;;;4.18;0.28;;;14.70;99.90;;;;;;5032873;28;20504;-73
2023/07/05 11:11:48;;;;;;;5.60;1.70;;;14.60;99.90;;;;;;5034031;28;20106;-73
2023/07/05 11:14:15;;;;;;;9.40;0.52;;;14.70;99.90;;;;;;5034116;28;20029;-75
2023/07/05 11:16:46;;;;;;;5.65;0.98;;;14.60;99.90;;;;;;5033931;28;20108;-76
2023/07/05 11:19:16;;;;;;;3.10;0.20;;;14.60;99.90;;;;;;5034094;28;20056;-74
2023/07/05 11:21:49;;;;;;;4.32;0.30;;;14.50;99.90;;;;;;5033924;28;20030;-74
2023/07/05 11:24:36;;;;;;;1.75;0.15;;;14.50;99.90;;;;;;5033806;28;20021;-74
2023/07/05 11:27:27;;;;;;;2.47;0.55;;;14.50;99.90;;;;;;5033934;28;20444;-72
2023/07/05 11:29:54;;;;;;;1.08;0.10;;;14.50;99.90;;;;;;5033816;28;20026;-76
2023/07/05 11:32:27;;;;;;;2.90;0.20;;;14.30;99.90;;;;;;5031909;28;20512;-74
2023/07/05 11:34:54;;;;;;;4.93;0.65;;;17.20;99.90;;;;;;5033869;28;20065;-74
2023/07/05 11:37:20;;;;;;;6.57;1.02;;;14.20;99.90;;;;;;5033712;28;20030;-74
2023/07/05 11:39:48;;;;;;;3.20;0.55;;;14.20;99.90;;;;;;5033384;28;20101;-74
2023/07/05 11:42:13;;;;;;;7.80;0.27;;;14.00;99.90;;;;;;5032358;28;20021;-74
2023/07/05 11:44:41;;;;;;;9.63;0.70;;;13.70;99.90;;;;;;5030899;28;20029;-74
2023/07/05 11:47:11;;;;;;;13.18;0.30;;;13.70;99.90;;;;;;5033246;28;20091;-74
2023/07/05 11:49:40;;;;;;;4.50;0.65;;;13.70;99.90;;;;;;5032269;28;20022;-74
2023/07/05 11:52:26;;;;;;;7.20;0.20;;;13.60;99.90;;;;;;5033133;28;20104;-74
2023/07/05 11:55:04;;;;;;;12.95;0.85;;;13.50;99.90;;;;;;5032268;28;20112;-74
2023/07/05 11:57:39;;;;;;;5.40;0.17;;;13.50;99.90;;;;;;5033945;28;20080;-74
2023/07/05 12:00:19;;;;;;;4.32;1.13;;;13.50;99.90;;;;;;5032076;28;20068;-74
2023/07/05 12:02:47;;;;;;;4.60;0.35;;;13.50;99.90;;;;;;5033629;28;20029;-74
2023/07/05 12:05:17;;;;;;;2.15;0.20;;;13.60;99.90;;;;;;5033248;28;20053;-74
2023/07/05 12:07:47;;;;;;;4.70;0.43;;;13.70;99.90;;;;;;5032090;28;20393;-74
2023/07/05 12:10:19;;;;;;;2.25;0.95;;;13.80;99.90;;;;;;5033255;28;20479;-74
2023/07/05 12:12:45;;;;;;;2.60;0.00;;;14.30;99.90;;;;;;5032997;28;20394;-74
2023/07/05 12:15:12;;;;;;;7.03;0.80;;;14.20;99.90;;;;;;5033222;28;20026;-73
2023/07/05 12:17:38;;;;;;;4.28;0.40;;;14.30;99.90;;;;;;5033672;28;20033;-73
2023/07/05 12:20:30;;;;;;;3.58;0.20;;;14.40;99.90;;;;;;5031868;28;20034;-73
2023/07/05 12:22:57;;;;;;;1.45;0.15;;;14.40;99.90;;;;;;5028618;28;20497;-73
2023/07/05 12:25:24;;;;;;;2.20;0.13;;;14.40;99.90;;;;;;5033046;28;20031;-74
2023/07/05 12:27:51;;;;;;;1.17;0.30;;;14.20;99.90;;;;;;5031831;28;20017;-73
2023/07/05 12:30:19;;;;;;;5.22;0.30;;;14.30;99.90;;;;;;5033030;28;20022;-74
2023/07/05 12:32:56;;;;;;;3.05;0.22;;;14.70;99.90;;;;;;5031632;28;20018;-74
2023/07/05 12:35:27;;;;;;;0.90;0.10;;;14.90;99.90;;;;;;5031689;28;20033;-74
2023/07/05 12:37:54;;;;;;;5.03;0.10;;;15.00;99.90;;;;;;5032376;28;20025;-74
2023/07/05 12:40:30;;;;;;;3.13;0.43;;;15.00;99.90;;;;;;5032891;28;20416;-74
2023/07/05 12:43:08;;;;;;;5.35;0.13;;;14.80;99.90;;;;;;5032766;28;20026;-74
2023/07/05 12:45:39;;;;;;;4.07;0.20;;;14.90;99.90;;;;;;5036446;28;20059;-74
2023/07/05 12:48:25;;;;;;;2.53;0.10;;;14.90;99.90;;;;;;5037374;28;20460;-74
2023/07/05 12:51:06;;;;;;;5.03;0.30;;;14.90;99.90;;;;;;5036894;28;20020;-76
2023/07/05 12:53:33;;;;;;;4.95;0.20;;;14.90;99.90;;;;;;5035286;28;20026;-76
2023/07/05 12:56:00;;;;;;;5.20;0.10;;;15.00;99.90;;;;;;5035395;28;20041;-76
2023/07/05 12:58:28;;;;;;;4.25;0.10;;;14.90;99.90;;;;;;5036190;28;20025;-76